Air Resources Laboratory banner image
Air Resources Laboratory web site National Oceanic and Atmospheric Administration (NOAA)

de metar


KDOV 171056Z AUTO 00000KT 10SM CLR M02/M02 A3024 RMK AO2 SLP244 T10191019 $=
KGED 171054Z AUTO 00000KT 8SM CLR M02/M04 A3024 RMK AO2 SLP241 I1000 T10171039=
KILG 171051Z 02003KT 8SM CLR M02/M04 A3024 RMK AO2 SLP242 T10221039 $=